Time;durP1;ratioP1;P1;durP2;ratioP2;P2;SDS_P1;SDS_P2;PMS_P1;PMS_P2;Temp;Humidity;BMP_temperature;BMP_pressure;BME280_temperature;BME280_humidity;BME280_pressure;Samples;Min_cycle;Max_cycle;Signal;HPM_P1;HPM_P2
2022/07/11 00:02:55;;;;;;;2.47;1.05;;;;;;;;;;5076331;28;20055;-77
2022/07/11 00:08:28;;;;;;;4.53;0.85;;;;;;;;;;5098920;22;20102;-78
2022/07/11 00:11:05;;;;;;;4.65;1.10;;;;;;;;;;5075691;28;20507;-78
2022/07/11 00:17:13;;;;;;;2.03;0.73;;;;;;;;;;4975200;28;20027;-78
2022/07/11 00:20:12;;;;;;;2.35;0.77;;;;;;;;;;4958313;28;20034;-77
2022/07/11 00:23:13;;;;;;;4.13;1.05;;;;;;;;;;5005378;28;20382;-79
2022/07/11 00:25:39;;;;;;;4.13;0.90;;;;;;;;;;5054799;28;20100;-77
2022/07/11 00:28:09;;;;;;;2.72;1.00;;;;;;;;;;5053813;28;20056;-77
2022/07/11 00:30:56;;;;;;;5.63;1.08;;;;;;;;;;5054787;28;20029;-76
2022/07/11 00:34:21;;;;;;;;;;;;;;;;;;;;;
2022/07/11 00:37:37;;;;;;;3.13;1.00;;;;;;;;;;4975267;28;20040;-79
2022/07/11 00:43:02;;;;;;;1.63;0.90;;;;;;;;;;5055650;28;20024;-77
2022/07/11 00:46:29;;;;;;;2.58;0.80;;;;;;;;;;5056325;28;20033;-79
2022/07/11 00:49:29;;;;;;;4.03;0.95;;;;;;;;;;4946382;29;20036;-77
2022/07/11 00:55:53;;;;;;;;;;;;;;;;;;;;;
2022/07/11 01:02:27;;;;;;;2.83;0.85;;;;;;;;;;4919541;29;20465;-78
2022/07/11 01:05:39;;;;;;;2.90;1.02;;;;;;;;;;4916731;29;20147;-78
2022/07/11 01:11:58;;;;;;;;;;;;;;;;;;;;;
2022/07/11 01:14:51;;;;;;;;;;;;;;;;;;;;;
2022/07/11 01:25:58;;;;;;;3.00;0.82;;;;;;;;;;4785824;26;20053;-78
2022/07/11 01:57:16;;;;;;;;;;;;;;;;;;;;;
2022/07/11 02:02:08;;;;;;;4.55;1.02;;;;;;;;;;4973956;26;20045;-77
2022/07/11 02:14:00;;;;;;;3.75;0.90;;;;;;;;;;5012853;28;20109;-77
2022/07/11 02:17:30;;;;;;;2.92;1.00;;;;;;;;;;5073535;28;20109;-78
2022/07/11 02:23:40;;;;;;;3.42;0.90;;;;;;;;;;5088426;22;20066;-77
2022/07/11 02:37:33;;;;;;;;;;;;;;;;;;;;;
2022/07/11 02:42:15;;;;;;;2.92;1.02;;;;;;;;;;5090772;22;20065;-78
2022/07/11 02:46:18;;;;;;;2.53;0.75;;;;;;;;;;5058228;28;20040;-78
2022/07/11 02:52:49;;;;;;;1.58;0.90;;;;;;;;;;5074033;28;20048;-77
2022/07/11 02:55:41;;;;;;;2.55;0.88;;;;;;;;;;5075769;28;20037;-78
2022/07/11 03:05:51;;;;;;;3.25;1.00;;;;;;;;;;4918204;29;20051;-79
2022/07/11 03:09:27;;;;;;;;;;;;;;;;;;;;;
2022/07/11 03:12:26;;;;;;;2.30;1.00;;;;;;;;;;4888757;28;20036;-78
2022/07/11 03:16:16;;;;;;;5.70;1.17;;;;;;;;;;5032870;28;20030;-78
2022/07/11 03:24:25;;;;;;;3.55;1.38;;;;;;;;;;997256;26;20386;-78
2022/07/11 03:29:57;;;;;;;4.22;1.02;;;;;;;;;;5158810;22;20052;-78
2022/07/11 03:32:23;;;;;;;11.55;1.15;;;;;;;;;;5076058;28;20112;-78
2022/07/11 03:37:34;;;;;;;5.90;1.13;;;;;;;;;;5040628;28;20066;-77
2022/07/11 03:39:59;;;;;;;5.22;1.10;;;;;;;;;;5074244;28;20024;-78
2022/07/11 03:42:25;;;;;;;6.72;1.08;;;;;;;;;;5076846;28;20043;-78
2022/07/11 03:44:51;;;;;;;2.70;1.08;;;;;;;;;;5076166;28;20107;-78
2022/07/11 03:47:16;;;;;;;2.85;0.90;;;;;;;;;;5066772;28;20021;-80
2022/07/11 03:55:04;;;;;;;5.85;1.10;;;;;;;;;;1508692;26;20070;-78
2022/07/11 04:04:08;;;;;;;2.78;1.00;;;;;;;;;;5058834;28;20029;-78
2022/07/11 04:07:17;;;;;;;3.03;1.17;;;;;;;;;;5074929;28;20025;-76
2022/07/11 04:09:42;;;;;;;1.42;0.80;;;;;;;;;;5071312;28;20032;-77
2022/07/11 04:12:37;;;;;;;4.03;1.05;;;;;;;;;;5067536;28;20017;-78
2022/07/11 04:15:27;;;;;;;4.85;1.17;;;;;;;;;;5073224;28;20039;-78
2022/07/11 04:17:55;;;;;;;4.78;1.15;;;;;;;;;;5074371;28;20043;-77
2022/07/11 04:27:05;;;;;;;4.07;0.90;;;;;;;;;;5077977;28;20026;-77
2022/07/11 04:30:15;;;;;;;6.85;1.30;;;;;;;;;;5078537;28;20103;-78
2022/07/11 04:32:43;;;;;;;4.40;1.00;;;;;;;;;;5067155;28;20032;-77
2022/07/11 04:35:11;;;;;;;3.05;1.38;;;;;;;;;;5077626;28;20024;-78
2022/07/11 04:37:44;;;;;;;4.97;1.00;;;;;;;;;;5077420;28;20029;-77
2022/07/11 04:47:20;;;;;;;4.80;1.10;;;;;;;;;;4918324;29;20506;-78
2022/07/11 05:14:46;;;;;;;4.40;1.02;;;;;;;;;;5059104;28;20393;-78
2022/07/11 05:17:36;;;;;;;10.20;1.25;;;;;;;;;;5057674;28;20064;-78
2022/07/11 05:20:13;;;;;;;3.30;1.00;;;;;;;;;;4991885;28;20044;-78
2022/07/11 05:22:39;;;;;;;4.25;1.10;;;;;;;;;;5058223;28;20021;-78
2022/07/11 05:25:10;;;;;;;6.18;1.08;;;;;;;;;;5057078;28;20020;-78
2022/07/11 05:28:31;;;;;;;3.20;1.10;;;;;;;;;;5058295;28;20036;-78
2022/07/11 05:31:02;;;;;;;7.25;1.20;;;;;;;;;;5057399;28;20032;-77
2022/07/11 05:37:12;;;;;;;4.05;1.30;;;;;;;;;;4997355;28;20144;-78
2022/07/11 05:43:30;;;;;;;8.55;1.23;;;;;;;;;;5058708;28;20505;-77
2022/07/11 05:45:58;;;;;;;7.32;1.15;;;;;;;;;;4976438;28;20035;-78
2022/07/11 05:48:29;;;;;;;4.78;1.05;;;;;;;;;;5057064;28;20044;-78
2022/07/11 05:51:00;;;;;;;3.50;1.25;;;;;;;;;;5057121;28;20084;-79
2022/07/11 05:57:25;;;;;;;6.03;1.30;;;;;;;;;;4976342;28;20042;-77
2022/07/11 06:10:01;;;;;;;2.60;0.90;;;;;;;;;;4945209;28;20047;-78
2022/07/11 06:13:07;;;;;;;4.13;1.15;;;;;;;;;;4975186;28;20045;-79
2022/07/11 06:20:01;;;;;;;;;;;;;;;;;;;;;
2022/07/11 06:22:27;;;;;;;5.80;1.30;;;;;;;;;;5035321;28;20029;-78
2022/07/11 06:25:23;;;;;;;5.88;1.13;;;;;;;;;;5036739;28;20057;-77
2022/07/11 06:28:00;;;;;;;6.22;1.10;;;;;;;;;;5036563;28;20025;-79
2022/07/11 06:30:28;;;;;;;6.90;1.35;;;;;;;;;;5036161;28;20072;-78
2022/07/11 06:32:57;;;;;;;8.35;1.23;;;;;;;;;;5035348;28;20083;-78
2022/07/11 06:35:25;;;;;;;4.38;1.33;;;;;;;;;;5035946;28;20034;-78
2022/07/11 06:38:40;;;;;;;6.38;1.20;;;;;;;;;;5113946;22;20394;-78
2022/07/11 06:41:33;;;;;;;4.32;0.88;;;;;;;;;;5035322;28;20552;-80
2022/07/11 06:44:16;;;;;;;3.72;1.05;;;;;;;;;;5036422;28;20497;-77
2022/07/11 06:46:41;;;;;;;3.83;1.10;;;;;;;;;;5018901;28;20032;-79
2022/07/11 06:49:41;;;;;;;11.05;1.30;;;;;;;;;;5036649;28;20029;-78
2022/07/11 06:52:09;;;;;;;7.88;1.17;;;;;;;;;;5037411;28;20490;-78
2022/07/11 06:54:34;;;;;;;5.32;1.30;;;;;;;;;;5035108;28;20479;-78
2022/07/11 06:57:00;;;;;;;8.43;1.23;;;;;;;;;;5017741;28;20029;-77
2022/07/11 06:59:25;;;;;;;5.80;1.02;;;;;;;;;;5035200;28;20483;-78
2022/07/11 07:01:58;;;;;;;4.18;0.93;;;;;;;;;;5035510;28;20021;-80
2022/07/11 07:04:24;;;;;;;6.50;1.10;;;;;;;;;;5036556;28;20463;-79
2022/07/11 07:06:49;;;;;;;4.10;1.30;;;;;;;;;;5037100;28;20037;-79
2022/07/11 07:09:14;;;;;;;5.63;1.27;;;;;;;;;;5083812;22;20414;-79
2022/07/11 07:11:40;;;;;;;5.30;1.83;;;;;;;;;;5077266;28;20024;-78
2022/07/11 07:14:05;;;;;;;8.00;1.20;;;;;;;;;;5076656;28;20269;-79
2022/07/11 07:16:30;;;;;;;5.23;1.40;;;;;;;;;;5077032;28;20286;-79
2022/07/11 07:18:55;;;;;;;5.23;1.10;;;;;;;;;;5076622;28;20730;-80
2022/07/11 07:21:21;;;;;;;3.65;1.10;;;;;;;;;;5077505;28;20629;-79
2022/07/11 07:23:46;;;;;;;3.38;1.10;;;;;;;;;;5077282;28;20093;-81
2022/07/11 07:26:11;;;;;;;2.78;0.88;;;;;;;;;;5069509;28;20032;-79
2022/07/11 07:28:38;;;;;;;2.40;0.93;;;;;;;;;;5076586;28;20096;-80
2022/07/11 07:31:04;;;;;;;3.60;1.20;;;;;;;;;;5078296;28;20291;-79
2022/07/11 07:33:29;;;;;;;4.53;0.98;;;;;;;;;;5071473;28;20208;-79
2022/07/11 07:35:54;;;;;;;3.85;1.10;;;;;;;;;;5077082;28;20362;-80
2022/07/11 07:38:20;;;;;;;4.70;1.07;;;;;;;;;;5077718;28;20023;-79
2022/07/11 07:40:45;;;;;;;5.93;1.10;;;;;;;;;;5079553;28;20261;-79
2022/07/11 07:43:10;;;;;;;5.60;1.27;;;;;;;;;;5082672;28;20249;-78
2022/07/11 07:45:35;;;;;;;2.80;1.00;;;;;;;;;;5089927;28;20024;-77
2022/07/11 07:48:00;;;;;;;2.60;0.90;;;;;;;;;;5087604;28;20625;-77
2022/07/11 07:50:26;;;;;;;5.97;1.07;;;;;;;;;;5088159;28;20256;-78
2022/07/11 07:52:51;;;;;;;2.47;0.85;;;;;;;;;;5090255;28;20287;-77
2022/07/11 07:55:16;;;;;;;4.68;0.90;;;;;;;;;;5090150;28;20051;-77
2022/07/11 07:57:42;;;;;;;3.65;1.00;;;;;;;;;;5090974;28;20086;-78
2022/07/11 08:02:51;;;;;;;4.38;1.20;;;;;;;;;;5092333;28;20261;-76
2022/07/11 08:05:18;;;;;;;4.27;1.30;;;;;;;;;;5084858;28;20028;-79
2022/07/11 08:07:43;;;;;;;4.57;0.90;;;;;;;;;;5088538;28;20273;-77
2022/07/11 08:10:09;;;;;;;5.30;1.42;;;;;;;;;;5083346;28;20033;-78
2022/07/11 08:12:34;;;;;;;7.03;0.98;;;;;;;;;;5092725;28;20029;-77
2022/07/11 08:15:00;;;;;;;7.10;1.00;;;;;;;;;;5084652;28;20103;-78
2022/07/11 08:17:25;;;;;;;6.15;1.17;;;;;;;;;;5070731;28;20696;-77
2022/07/11 08:19:50;;;;;;;3.57;0.90;;;;;;;;;;5075962;28;20051;-79
2022/07/11 08:22:15;;;;;;;2.22;0.80;;;;;;;;;;5074836;28;20730;-78
2022/07/11 08:24:41;;;;;;;2.57;0.83;;;;;;;;;;5075282;28;20024;-78
2022/07/11 08:27:06;;;;;;;3.50;0.70;;;;;;;;;;5076135;28;20272;-78
2022/07/11 08:29:31;;;;;;;3.67;0.90;;;;;;;;;;5076264;28;20269;-78
2022/07/11 08:31:56;;;;;;;5.07;1.20;;;;;;;;;;5075424;28;20031;-77
2022/07/11 08:34:21;;;;;;;3.00;0.70;;;;;;;;;;5069178;28;20249;-79
2022/07/11 08:36:47;;;;;;;3.40;0.93;;;;;;;;;;5076263;28;20257;-79
2022/07/11 08:39:12;;;;;;;7.90;1.10;;;;;;;;;;5116232;22;20302;-78
2022/07/11 08:41:45;;;;;;;3.97;1.30;;;;;;;;;;5074129;28;20330;-79
2022/07/11 08:44:14;;;;;;;3.15;0.95;;;;;;;;;;5075624;28;20782;-77
2022/07/11 08:46:43;;;;;;;4.88;1.13;;;;;;;;;;5075568;28;20020;-78
2022/07/11 08:49:11;;;;;;;3.33;0.90;;;;;;;;;;5075207;28;20082;-76
2022/07/11 08:51:36;;;;;;;3.58;1.10;;;;;;;;;;5055838;28;20127;-78
2022/07/11 08:54:01;;;;;;;8.30;1.20;;;;;;;;;;5074588;28;20048;-77
2022/07/11 08:56:27;;;;;;;5.70;1.15;;;;;;;;;;5074526;28;20032;-79
2022/07/11 08:58:54;;;;;;;2.65;0.90;;;;;;;;;;5075233;28;20048;-77
2022/07/11 09:01:27;;;;;;;2.58;0.90;;;;;;;;;;5073339;28;20470;-77
2022/07/11 09:03:53;;;;;;;2.70;0.90;;;;;;;;;;5074380;28;20023;-77
2022/07/11 09:06:18;;;;;;;2.38;0.98;;;;;;;;;;5075471;28;20036;-78
2022/07/11 09:08:43;;;;;;;2.57;0.97;;;;;;;;;;5076703;28;20028;-82
2022/07/11 09:11:09;;;;;;;4.40;0.97;;;;;;;;;;5078068;28;20311;-78
2022/07/11 09:13:36;;;;;;;2.35;0.70;;;;;;;;;;5059447;28;20334;-80
2022/07/11 09:16:03;;;;;;;4.35;1.20;;;;;;;;;;5060202;28;20115;-78
2022/07/11 09:18:37;;;;;;;3.60;0.88;;;;;;;;;;5078462;28;20393;-77
2022/07/11 09:26:51;;;;;;;4.50;0.70;;;;;;;;;;5078113;28;20079;-78
2022/07/11 09:29:24;;;;;;;3.38;1.00;;;;;;;;;;5078735;28;20390;-79
2022/07/11 09:31:50;;;;;;;6.32;1.05;;;;;;;;;;5077416;28;20020;-77
2022/07/11 09:34:18;;;;;;;2.22;0.80;;;;;;;;;;5060251;28;20024;-78
2022/07/11 09:36:56;;;;;;;7.78;0.90;;;;;;;;;;5061211;28;20048;-78
2022/07/11 09:39:34;;;;;;;2.80;0.95;;;;;;;;;;5458696;22;20052;-78
2022/07/11 09:42:00;;;;;;;3.95;0.70;;;;;;;;;;5077766;28;20154;-79
2022/07/11 09:45:23;;;;;;;4.85;0.80;;;;;;;;;;5079375;28;20048;-78
2022/07/11 09:50:23;;;;;;;2.63;0.82;;;;;;;;;;5049534;28;20064;-78
2022/07/11 09:53:44;;;;;;;4.80;0.80;;;;;;;;;;5058766;28;20027;-79
2022/07/11 09:57:10;;;;;;;3.47;0.98;;;;;;;;;;5039858;28;20021;-77
2022/07/11 09:59:37;;;;;;;3.35;0.70;;;;;;;;;;4974389;28;20037;-79
2022/07/11 10:02:02;;;;;;;4.47;0.85;;;;;;;;;;5036626;28;20053;-77
2022/07/11 10:04:28;;;;;;;2.70;0.70;;;;;;;;;;5035364;28;20028;-77
2022/07/11 10:07:08;;;;;;;1.67;0.63;;;;;;;;;;5037304;28;20063;-77
2022/07/11 10:09:35;;;;;;;2.45;0.80;;;;;;;;;;5037390;28;20033;-79
2022/07/11 10:12:00;;;;;;;1.52;0.60;;;;;;;;;;5040791;28;20508;-79
2022/07/11 10:14:25;;;;;;;5.15;1.08;;;;;;;;;;5038793;28;20021;-78
2022/07/11 10:17:08;;;;;;;2.65;0.90;;;;;;;;;;5035235;28;20022;-77
2022/07/11 10:20:08;;;;;;;5.65;0.70;;;;;;;;;;5036036;28;20021;-77
2022/07/11 10:22:53;;;;;;;2.70;0.88;;;;;;;;;;5040014;28;20380;-79
2022/07/11 10:25:54;;;;;;;3.97;0.70;;;;;;;;;;5039781;28;20055;-78
2022/07/11 10:28:30;;;;;;;1.90;0.60;;;;;;;;;;5037537;28;20025;-80
2022/07/11 10:31:01;;;;;;;3.10;0.70;;;;;;;;;;5037940;28;20025;-78
2022/07/11 10:33:27;;;;;;;5.97;0.77;;;;;;;;;;5020505;28;20025;-78
2022/07/11 10:35:53;;;;;;;1.17;0.60;;;;;;;;;;5022559;28;20037;-78
2022/07/11 10:38:20;;;;;;;2.53;0.70;;;;;;;;;;5039872;28;20029;-79
2022/07/11 10:40:47;;;;;;;1.65;0.57;;;;;;;;;;5035837;28;20398;-78
2022/07/11 10:43:15;;;;;;;1.92;0.60;;;;;;;;;;5037380;28;20540;-78
2022/07/11 10:46:01;;;;;;;1.90;0.70;;;;;;;;;;5022100;28;20430;-76
2022/07/11 10:48:29;;;;;;;2.15;0.60;;;;;;;;;;5036200;28;20032;-77
2022/07/11 10:51:33;;;;;;;2.95;1.67;;;;;;;;;;5036652;28;20112;-77
2022/07/11 10:54:11;;;;;;;5.63;0.50;;;;;;;;;;5018860;28;20029;-78
2022/07/11 10:56:50;;;;;;;2.17;0.75;;;;;;;;;;5038347;28;20243;-78
2022/07/11 10:59:17;;;;;;;1.50;0.60;;;;;;;;;;5038711;28;20032;-79
2022/07/11 11:02:03;;;;;;;2.28;0.70;;;;;;;;;;5037235;28;20033;-78
2022/07/11 11:04:57;;;;;;;1.95;0.50;;;;;;;;;;5037806;28;20052;-77
2022/07/11 11:07:43;;;;;;;1.63;0.65;;;;;;;;;;5018804;28;20060;-78
2022/07/11 11:10:17;;;;;;;0.90;0.50;;;;;;;;;;5018549;28;20033;-78
2022/07/11 11:13:09;;;;;;;0.35;0.35;;;;;;;;;;5036303;28;20031;-77
2022/07/11 11:15:54;;;;;;;1.42;0.50;;;;;;;;;;5017552;28;20036;-78
2022/07/11 11:18:31;;;;;;;1.15;0.60;;;;;;;;;;5037493;28;20025;-77
2022/07/11 11:21:02;;;;;;;1.58;0.50;;;;;;;;;;5038307;28;20040;-78
2022/07/11 11:23:28;;;;;;;3.65;0.50;;;;;;;;;;5036530;28;20479;-79
2022/07/11 11:25:54;;;;;;;0.93;0.70;;;;;;;;;;5019818;28;20033;-78
2022/07/11 11:28:20;;;;;;;2.03;0.80;;;;;;;;;;5037216;28;20017;-79
2022/07/11 11:30:56;;;;;;;4.47;0.65;;;;;;;;;;5018680;28;20254;-79
2022/07/11 11:33:24;;;;;;;0.75;0.43;;;;;;;;;;5019605;28;20056;-78
2022/07/11 11:36:04;;;;;;;0.98;0.75;;;;;;;;;;5035672;28;20039;-79
2022/07/11 11:38:33;;;;;;;2.15;0.63;;;;;;;;;;5036160;28;20483;-77
2022/07/11 11:40:58;;;;;;;1.02;0.50;;;;;;;;;;5037048;28;20036;-78
2022/07/11 11:43:24;;;;;;;2.88;0.60;;;;;;;;;;5035786;28;20013;-77
2022/07/11 11:45:53;;;;;;;0.60;0.38;;;;;;;;;;5035859;28;20104;-79
2022/07/11 11:48:38;;;;;;;0.77;0.50;;;;;;;;;;5018174;28;20107;-79
2022/07/11 11:51:10;;;;;;;1.27;0.50;;;;;;;;;;5037718;28;20025;-78
2022/07/11 11:53:37;;;;;;;2.00;0.60;;;;;;;;;;5036655;28;20108;-79
2022/07/11 11:56:28;;;;;;;4.15;0.77;;;;;;;;;;5030813;28;20021;-78
2022/07/11 11:59:15;;;;;;;2.90;0.55;;;;;;;;;;5037285;28;20023;-79
2022/07/11 12:01:43;;;;;;;1.45;0.52;;;;;;;;;;5019194;28;20126;-78
2022/07/11 12:04:12;;;;;;;1.95;0.38;;;;;;;;;;5036335;28;20021;-77
2022/07/11 12:06:43;;;;;;;0.93;0.50;;;;;;;;;;5037299;28;20021;-78
2022/07/11 12:09:09;;;;;;;1.02;0.47;;;;;;;;;;5037921;28;20382;-77
2022/07/11 12:11:39;;;;;;;1.23;0.52;;;;;;;;;;5017533;28;20045;-78
2022/07/11 12:14:07;;;;;;;1.35;0.50;;;;;;;;;;5037203;28;20033;-78
2022/07/11 12:16:43;;;;;;;1.88;0.50;;;;;;;;;;5039642;28;20022;-79
2022/07/11 12:19:08;;;;;;;2.00;0.50;;;;;;;;;;5038730;28;20025;-78
2022/07/11 12:21:34;;;;;;;2.07;0.50;;;;;;;;;;5038270;28;20040;-78
2022/07/11 12:24:05;;;;;;;0.30;0.30;;;;;;;;;;5036146;28;20618;-78
2022/07/11 12:26:37;;;;;;;1.90;0.57;;;;;;;;;;5037335;28;20036;-78
2022/07/11 12:29:22;;;;;;;4.82;0.50;;;;;;;;;;5037058;28;20022;-78
2022/07/11 12:31:48;;;;;;;1.38;0.50;;;;;;;;;;5039810;28;20025;-79
2022/07/11 12:34:16;;;;;;;1.48;0.50;;;;;;;;;;5037897;28;20035;-78
2022/07/11 12:36:41;;;;;;;2.28;0.50;;;;;;;;;;5037182;28;20026;-78
2022/07/11 12:39:08;;;;;;;0.77;0.50;;;;;;;;;;5037619;28;20029;-78
2022/07/11 12:41:34;;;;;;;2.40;0.70;;;;;;;;;;5040914;28;20417;-79
2022/07/11 12:46:46;;;;;;;2.05;0.70;;;;;;;;;;5042578;28;20441;-78
2022/07/11 12:49:12;;;;;;;0.40;0.40;;;;;;;;;;5030978;28;20033;-79
2022/07/11 12:51:42;;;;;;;2.00;0.65;;;;;;;;;;5038828;28;20099;-78
2022/07/11 12:54:12;;;;;;;2.55;0.30;;;;;;;;;;5040192;28;20107;-77
2022/07/11 12:56:39;;;;;;;1.90;0.60;;;;;;;;;;5039645;28;20031;-78
2022/07/11 12:59:05;;;;;;;0.50;0.38;;;;;;;;;;5024630;28;20040;-79
2022/07/11 13:01:32;;;;;;;0.47;0.47;;;;;;;;;;5040874;28;20079;-79
2022/07/11 13:03:58;;;;;;;2.15;0.60;;;;;;;;;;5041621;28;20017;-79
2022/07/11 13:09:08;;;;;;;0.50;0.50;;;;;;;;;;5039053;28;20525;-78
2022/07/11 13:11:34;;;;;;;0.93;0.50;;;;;;;;;;5038682;28;20033;-78
2022/07/11 13:13:59;;;;;;;1.67;0.40;;;;;;;;;;5038563;28;20079;-78
2022/07/11 13:16:25;;;;;;;1.58;0.68;;;;;;;;;;5040313;28;20026;-77
2022/07/11 13:18:50;;;;;;;5.35;0.50;;;;;;;;;;5041795;28;20073;-78
2022/07/11 13:21:16;;;;;;;2.27;0.30;;;;;;;;;;5025625;28;20087;-78
2022/07/11 13:23:42;;;;;;;1.35;0.35;;;;;;;;;;5042245;28;20251;-78
2022/07/11 13:26:08;;;;;;;3.97;0.65;;;;;;;;;;5042353;28;20037;-79
2022/07/11 13:28:33;;;;;;;2.80;0.60;;;;;;;;;;5041671;28;20032;-80
2022/07/11 13:30:59;;;;;;;2.30;0.50;;;;;;;;;;5040916;28;20108;-80
2022/07/11 13:33:25;;;;;;;1.83;0.60;;;;;;;;;;5039403;28;20446;-79
2022/07/11 13:35:52;;;;;;;1.25;0.40;;;;;;;;;;5040073;28;20026;-80
2022/07/11 13:38:19;;;;;;;1.33;0.50;;;;;;;;;;5040722;28;20100;-78
2022/07/11 13:40:45;;;;;;;0.57;0.50;;;;;;;;;;5039755;28;20387;-79
2022/07/11 13:43:11;;;;;;;0.82;0.30;;;;;;;;;;5022080;28;20029;-79
2022/07/11 13:45:37;;;;;;;1.02;0.50;;;;;;;;;;5021371;28;20028;-79
2022/07/11 13:48:02;;;;;;;2.22;0.68;;;;;;;;;;5039109;28;20430;-78
2022/07/11 13:50:27;;;;;;;1.02;0.50;;;;;;;;;;5039301;28;20025;-79
2022/07/11 13:52:53;;;;;;;0.47;0.47;;;;;;;;;;5040624;28;20075;-79
2022/07/11 13:55:20;;;;;;;0.52;0.40;;;;;;;;;;5040642;28;20033;-78
2022/07/11 13:57:49;;;;;;;0.60;0.50;;;;;;;;;;5040118;28;20375;-80
2022/07/11 14:00:15;;;;;;;1.52;0.60;;;;;;;;;;5022671;28;20025;-79
2022/07/11 14:02:41;;;;;;;4.43;0.70;;;;;;;;;;5022020;28;20028;-78
2022/07/11 14:05:06;;;;;;;3.47;0.45;;;;;;;;;;5039587;28;20017;-77
2022/07/11 14:07:32;;;;;;;0.55;0.50;;;;;;;;;;5038325;28;20123;-78
2022/07/11 14:09:57;;;;;;;1.23;0.50;;;;;;;;;;5037853;28;20032;-80
2022/07/11 14:12:22;;;;;;;2.70;0.50;;;;;;;;;;5038250;28;20032;-77
2022/07/11 14:14:47;;;;;;;1.25;0.60;;;;;;;;;;5039183;28;20475;-77
2022/07/11 14:17:13;;;;;;;1.23;0.50;;;;;;;;;;5038473;28;20049;-76
2022/07/11 14:19:39;;;;;;;3.83;0.60;;;;;;;;;;5038684;28;20075;-78
2022/07/11 14:22:07;;;;;;;2.08;0.70;;;;;;;;;;5038950;28;20029;-79
2022/07/11 14:24:34;;;;;;;1.20;0.45;;;;;;;;;;5041757;28;20108;-80
2022/07/11 14:26:59;;;;;;;0.30;0.30;;;;;;;;;;5040307;28;20100;-78
2022/07/11 14:29:25;;;;;;;2.28;0.60;;;;;;;;;;5038756;28;20486;-79
2022/07/11 14:31:54;;;;;;;0.40;0.40;;;;;;;;;;5022063;28;20059;-78
2022/07/11 14:34:26;;;;;;;0.52;0.38;;;;;;;;;;5020986;28;20025;-78
2022/07/11 14:36:51;;;;;;;0.93;0.52;;;;;;;;;;5040967;28;20033;-78
2022/07/11 14:39:17;;;;;;;1.27;0.60;;;;;;;;;;5039820;28;20064;-79
2022/07/11 14:41:44;;;;;;;1.48;0.50;;;;;;;;;;5039571;28;20037;-77
2022/07/11 14:44:09;;;;;;;1.75;0.60;;;;;;;;;;5037628;28;20044;-79
2022/07/11 14:46:35;;;;;;;1.95;0.50;;;;;;;;;;5038120;28;20479;-78
2022/07/11 14:49:00;;;;;;;3.50;0.40;;;;;;;;;;5020858;28;20025;-80
2022/07/11 14:51:27;;;;;;;0.70;0.40;;;;;;;;;;5038658;28;20025;-77
2022/07/11 14:53:53;;;;;;;0.45;0.45;;;;;;;;;;5038720;28;20282;-78
2022/07/11 14:56:18;;;;;;;1.85;0.50;;;;;;;;;;5039681;28;20025;-79
2022/07/11 14:58:44;;;;;;;2.47;0.70;;;;;;;;;;5037934;28;20071;-77
2022/07/11 15:01:09;;;;;;;0.45;0.40;;;;;;;;;;5037690;28;20262;-79
2022/07/11 15:03:37;;;;;;;0.57;0.40;;;;;;;;;;5037229;28;20024;-77
2022/07/11 15:06:07;;;;;;;1.10;0.52;;;;;;;;;;5036429;28;20021;-78
2022/07/11 15:14:01;;;;;;;0.63;0.40;;;;;;;;;;5039291;28;20067;-78
2022/07/11 15:16:27;;;;;;;0.57;0.40;;;;;;;;;;5020166;28;20025;-80
2022/07/11 15:18:53;;;;;;;2.40;0.57;;;;;;;;;;5037959;28;20115;-78
2022/07/11 15:21:18;;;;;;;1.55;0.52;;;;;;;;;;5037122;28;20029;-77
2022/07/11 15:23:43;;;;;;;0.75;0.50;;;;;;;;;;5037079;28;20077;-78
2022/07/11 15:26:09;;;;;;;1.73;0.40;;;;;;;;;;5038021;28;20029;-78
2022/07/11 15:28:34;;;;;;;0.80;0.57;;;;;;;;;;5037093;28;20266;-77
2022/07/11 15:30:59;;;;;;;1.50;0.60;;;;;;;;;;5037294;28;20259;-77
2022/07/11 15:33:24;;;;;;;1.83;0.53;;;;;;;;;;5036834;28;20048;-77
2022/07/11 15:35:52;;;;;;;1.27;0.60;;;;;;;;;;5037274;28;20259;-77
2022/07/11 15:38:18;;;;;;;1.45;0.60;;;;;;;;;;5038656;28;20340;-78
2022/07/11 15:40:43;;;;;;;2.53;0.60;;;;;;;;;;5020139;28;20021;-80
2022/07/11 15:43:08;;;;;;;0.73;0.55;;;;;;;;;;5038402;28;20027;-79
2022/07/11 15:45:34;;;;;;;1.43;0.60;;;;;;;;;;5038085;28;20029;-79
2022/07/11 15:47:59;;;;;;;0.63;0.60;;;;;;;;;;5032868;28;20268;-78
2022/07/11 15:50:25;;;;;;;2.67;0.60;;;;;;;;;;5032965;28;20263;-77
2022/07/11 15:52:50;;;;;;;4.35;0.50;;;;;;;;;;5036951;28;20044;-78
2022/07/11 15:55:15;;;;;;;0.52;0.50;;;;;;;;;;5038689;28;20025;-79
2022/07/11 15:57:41;;;;;;;1.00;0.50;;;;;;;;;;5035892;28;20029;-77
2022/07/11 16:00:07;;;;;;;2.15;0.50;;;;;;;;;;5017580;28;20033;-77
2022/07/11 16:02:32;;;;;;;1.30;0.57;;;;;;;;;;5035094;28;20025;-77
2022/07/11 16:04:58;;;;;;;0.45;0.43;;;;;;;;;;5036488;28;20034;-78
2022/07/11 16:07:23;;;;;;;2.47;0.80;;;;;;;;;;5035242;28;20067;-78
2022/07/11 16:09:48;;;;;;;2.15;0.60;;;;;;;;;;5017257;28;20017;-77
2022/07/11 16:12:14;;;;;;;0.52;0.40;;;;;;;;;;5035127;28;20029;-77
2022/07/11 16:14:39;;;;;;;5.93;0.60;;;;;;;;;;5035415;28;20426;-78
2022/07/11 16:17:04;;;;;;;1.93;0.60;;;;;;;;;;5038853;28;20262;-78
2022/07/11 16:19:31;;;;;;;1.30;0.50;;;;;;;;;;5041259;28;20271;-79
2022/07/11 16:21:59;;;;;;;0.77;0.57;;;;;;;;;;5040852;28;20029;-79
2022/07/11 16:24:24;;;;;;;1.20;1.00;;;;;;;;;;5040504;28;20018;-79
2022/07/11 16:26:50;;;;;;;1.85;0.50;;;;;;;;;;5040727;28;20414;-78
2022/07/11 16:29:15;;;;;;;0.60;0.50;;;;;;;;;;5039818;28;20032;-79
2022/07/11 16:31:40;;;;;;;1.83;0.50;;;;;;;;;;5040123;28;20316;-77
2022/07/11 16:34:06;;;;;;;0.83;0.50;;;;;;;;;;5039585;28;20385;-78
2022/07/11 16:36:31;;;;;;;1.05;0.50;;;;;;;;;;5038402;28;20676;-78
2022/07/11 16:44:25;;;;;;;1.98;0.63;;;;;;;;;;5039334;28;20389;-78
2022/07/11 16:46:50;;;;;;;1.07;0.60;;;;;;;;;;5021759;28;20041;-77
2022/07/11 16:49:15;;;;;;;3.05;0.57;;;;;;;;;;5045879;28;20293;-77
2022/07/11 16:51:40;;;;;;;0.63;0.60;;;;;;;;;;5034888;28;20055;-79
2022/07/11 16:54:06;;;;;;;1.00;0.60;;;;;;;;;;5051710;28;20282;-77
2022/07/11 16:56:33;;;;;;;4.43;0.70;;;;;;;;;;5038871;28;20394;-79
2022/07/11 16:58:58;;;;;;;1.85;0.70;;;;;;;;;;5020027;28;20258;-77
2022/07/11 17:01:24;;;;;;;7.07;0.60;;;;;;;;;;5040398;28;20048;-78
2022/07/11 17:03:49;;;;;;;0.75;0.50;;;;;;;;;;5038394;28;20254;-78
2022/07/11 17:06:15;;;;;;;3.15;0.73;;;;;;;;;;5039222;28;20026;-77
2022/07/11 17:08:44;;;;;;;0.77;0.50;;;;;;;;;;5038633;28;20155;-76
2022/07/11 17:11:10;;;;;;;2.75;0.60;;;;;;;;;;5038578;28;20052;-78
2022/07/11 17:13:35;;;;;;;1.73;0.95;;;;;;;;;;5038176;28;20467;-77
2022/07/11 17:16:02;;;;;;;0.50;0.50;;;;;;;;;;5039379;28;20038;-78
2022/07/11 17:18:27;;;;;;;1.58;0.55;;;;;;;;;;5038909;28;20025;-78
2022/07/11 17:20:52;;;;;;;0.97;0.60;;;;;;;;;;5037669;28;20059;-79
2022/07/11 17:23:19;;;;;;;2.42;0.50;;;;;;;;;;5039389;28;20374;-78
2022/07/11 17:25:45;;;;;;;1.90;0.60;;;;;;;;;;5039297;28;20041;-77
2022/07/11 17:28:13;;;;;;;0.85;0.60;;;;;;;;;;5037739;28;20109;-78
2022/07/11 17:30:40;;;;;;;1.08;0.60;;;;;;;;;;5019957;28;20463;-79
2022/07/11 17:33:05;;;;;;;1.40;0.70;;;;;;;;;;5038655;28;20045;-79
2022/07/11 17:35:30;;;;;;;1.43;0.60;;;;;;;;;;5038089;28;20041;-80
2022/07/11 17:37:57;;;;;;;1.38;0.52;;;;;;;;;;5037011;28;20346;-78
2022/07/11 17:40:22;;;;;;;1.45;0.60;;;;;;;;;;5037134;28;20036;-81
2022/07/11 17:42:47;;;;;;;1.42;0.47;;;;;;;;;;5037776;28;20475;-79
2022/07/11 17:45:13;;;;;;;1.15;0.50;;;;;;;;;;5019782;28;20036;-77
2022/07/11 17:47:40;;;;;;;1.38;0.50;;;;;;;;;;5038714;28;20021;-78
2022/07/11 17:50:09;;;;;;;1.05;0.55;;;;;;;;;;5038514;28;20036;-80
2022/07/11 17:52:34;;;;;;;2.85;0.50;;;;;;;;;;5022026;28;20479;-79
2022/07/11 17:55:00;;;;;;;0.85;0.45;;;;;;;;;;5038399;28;20037;-78
2022/07/11 17:57:25;;;;;;;0.47;0.40;;;;;;;;;;5039812;28;20030;-79
2022/07/11 17:59:50;;;;;;;0.70;0.45;;;;;;;;;;5037724;28;20461;-78
2022/07/11 18:02:16;;;;;;;1.40;0.60;;;;;;;;;;5038224;28;20026;-80
2022/07/11 18:04:41;;;;;;;1.20;0.50;;;;;;;;;;5021040;28;20266;-79
2022/07/11 18:07:06;;;;;;;0.88;0.52;;;;;;;;;;5037896;28;20363;-78
2022/07/11 18:09:31;;;;;;;1.60;0.67;;;;;;;;;;5038432;28;20030;-79
2022/07/11 18:11:57;;;;;;;2.83;0.88;;;;;;;;;;5039134;28;20254;-78
2022/07/11 18:14:22;;;;;;;1.10;0.60;;;;;;;;;;5037858;28;20044;-79
2022/07/11 18:16:47;;;;;;;1.67;0.50;;;;;;;;;;5038375;28;20075;-79
2022/07/11 18:19:12;;;;;;;1.02;0.50;;;;;;;;;;5019960;28;20250;-79
2022/07/11 18:21:38;;;;;;;0.57;0.57;;;;;;;;;;5038461;28;20017;-79
2022/07/11 18:24:03;;;;;;;1.48;0.60;;;;;;;;;;5021122;28;20294;-79
2022/07/11 18:26:29;;;;;;;5.93;0.68;;;;;;;;;;5038120;28;20541;-79
2022/07/11 18:28:54;;;;;;;0.75;0.57;;;;;;;;;;5037836;28;20021;-79
2022/07/11 18:31:19;;;;;;;2.05;0.80;;;;;;;;;;5039838;28;20033;-79
2022/07/11 18:33:44;;;;;;;1.00;0.90;;;;;;;;;;5037961;28;20625;-79
2022/07/11 18:36:10;;;;;;;0.90;0.70;;;;;;;;;;5038428;28;20667;-79
2022/07/11 18:41:11;;;;;;;3.78;0.80;;;;;;;;;;5036911;28;20601;-80
2022/07/11 18:41:22;;;;;;;2.75;0.70;;;;;;;;;;5038308;28;20033;-81
2022/07/11 18:44:02;;;;;;;1.25;0.80;;;;;;;;;;5038296;28;20022;-80
2022/07/11 18:46:27;;;;;;;3.00;0.65;;;;;;;;;;5038506;28;20021;-78
2022/07/11 18:48:56;;;;;;;0.70;0.60;;;;;;;;;;5029967;28;20506;-79
2022/07/11 18:51:21;;;;;;;2.45;0.80;;;;;;;;;;5036919;28;20394;-80
2022/07/11 18:53:48;;;;;;;0.77;0.68;;;;;;;;;;5021056;28;20029;-78